sensor_id;sensor_type;location;lat;lon;timestamp;P1;durP1;ratioP1;P2;durP2;ratioP2
12493;SDS011;8260;51.422;6.786;2023-07-13T00:02:05;5.15;;;1.80;;
12493;SDS011;8260;51.422;6.786;2023-07-13T00:04:33;7.55;;;2.05;;
12493;SDS011;8260;51.422;6.786;2023-07-13T00:07:04;6.10;;;1.88;;
12493;SDS011;8260;51.422;6.786;2023-07-13T00:09:32;3.85;;;1.90;;
12493;SDS011;8260;51.422;6.786;2023-07-13T00:12:01;2.95;;;1.98;;
12493;SDS011;8260;51.422;6.786;2023-07-13T00:14:30;4.10;;;2.05;;
12493;SDS011;8260;51.422;6.786;2023-07-13T00:16:58;4.97;;;2.10;;
12493;SDS011;8260;51.422;6.786;2023-07-13T00:19:27;3.75;;;1.80;;
12493;SDS011;8260;51.422;6.786;2023-07-13T00:21:56;7.75;;;1.75;;
12493;SDS011;8260;51.422;6.786;2023-07-13T00:24:26;3.80;;;1.80;;
12493;SDS011;8260;51.422;6.786;2023-07-13T00:26:55;4.90;;;1.90;;
12493;SDS011;8260;51.422;6.786;2023-07-13T00:29:25;2.50;;;1.80;;
12493;SDS011;8260;51.422;6.786;2023-07-13T00:31:54;5.28;;;1.83;;
12493;SDS011;8260;51.422;6.786;2023-07-13T00:34:24;4.10;;;1.90;;
12493;SDS011;8260;51.422;6.786;2023-07-13T00:36:52;5.50;;;1.90;;
12493;SDS011;8260;51.422;6.786;2023-07-13T00:39:21;2.55;;;1.70;;
12493;SDS011;8260;51.422;6.786;2023-07-13T00:41:51;3.85;;;1.52;;
12493;SDS011;8260;51.422;6.786;2023-07-13T00:44:20;4.55;;;1.90;;
12493;SDS011;8260;51.422;6.786;2023-07-13T00:46:50;4.43;;;2.10;;
12493;SDS011;8260;51.422;6.786;2023-07-13T00:49:20;5.50;;;2.00;;
12493;SDS011;8260;51.422;6.786;2023-07-13T00:51:51;6.13;;;2.10;;
12493;SDS011;8260;51.422;6.786;2023-07-13T00:54:24;4.65;;;1.80;;
12493;SDS011;8260;51.422;6.786;2023-07-13T00:56:55;6.07;;;1.90;;
12493;SDS011;8260;51.422;6.786;2023-07-13T00:59:27;7.13;;;1.98;;
12493;SDS011;8260;51.422;6.786;2023-07-13T01:01:55;4.80;;;2.03;;
12493;SDS011;8260;51.422;6.786;2023-07-13T01:04:24;4.20;;;2.20;;
12493;SDS011;8260;51.422;6.786;2023-07-13T01:06:52;4.18;;;2.28;;
12493;SDS011;8260;51.422;6.786;2023-07-13T01:09:21;6.05;;;2.35;;
12493;SDS011;8260;51.422;6.786;2023-07-13T01:11:49;8.60;;;2.55;;
12493;SDS011;8260;51.422;6.786;2023-07-13T01:14:19;4.40;;;2.25;;
12493;SDS011;8260;51.422;6.786;2023-07-13T01:16:48;4.95;;;2.65;;
12493;SDS011;8260;51.422;6.786;2023-07-13T01:19:21;5.88;;;2.35;;
12493;SDS011;8260;51.422;6.786;2023-07-13T01:21:57;4.95;;;2.00;;
12493;SDS011;8260;51.422;6.786;2023-07-13T01:24:26;7.00;;;2.15;;
12493;SDS011;8260;51.422;6.786;2023-07-13T01:26:54;3.00;;;1.70;;
12493;SDS011;8260;51.422;6.786;2023-07-13T01:29:23;4.65;;;2.13;;
12493;SDS011;8260;51.422;6.786;2023-07-13T01:31:51;6.35;;;2.20;;
12493;SDS011;8260;51.422;6.786;2023-07-13T01:34:20;7.03;;;2.25;;
12493;SDS011;8260;51.422;6.786;2023-07-13T01:36:48;6.40;;;2.20;;
12493;SDS011;8260;51.422;6.786;2023-07-13T01:39:21;3.80;;;2.08;;
12493;SDS011;8260;51.422;6.786;2023-07-13T01:41:50;5.32;;;2.08;;
12493;SDS011;8260;51.422;6.786;2023-07-13T01:44:19;6.45;;;2.10;;
12493;SDS011;8260;51.422;6.786;2023-07-13T01:46:47;4.00;;;1.75;;
12493;SDS011;8260;51.422;6.786;2023-07-13T01:49:16;6.70;;;1.98;;
12493;SDS011;8260;51.422;6.786;2023-07-13T01:51:44;3.28;;;2.05;;
12493;SDS011;8260;51.422;6.786;2023-07-13T01:54:13;4.32;;;1.80;;
12493;SDS011;8260;51.422;6.786;2023-07-13T01:56:43;3.85;;;2.03;;
12493;SDS011;8260;51.422;6.786;2023-07-13T01:59:11;4.65;;;2.15;;
12493;SDS011;8260;51.422;6.786;2023-07-13T02:01:40;3.17;;;2.22;;
12493;SDS011;8260;51.422;6.786;2023-07-13T02:04:08;3.63;;;1.85;;
12493;SDS011;8260;51.422;6.786;2023-07-13T02:06:37;3.60;;;2.03;;
12493;SDS011;8260;51.422;6.786;2023-07-13T02:09:06;5.13;;;1.90;;
12493;SDS011;8260;51.422;6.786;2023-07-13T02:11:34;3.78;;;2.08;;
12493;SDS011;8260;51.422;6.786;2023-07-13T02:14:04;3.00;;;2.20;;
12493;SDS011;8260;51.422;6.786;2023-07-13T02:16:33;5.40;;;1.92;;
12493;SDS011;8260;51.422;6.786;2023-07-13T02:19:01;7.55;;;2.40;;
12493;SDS011;8260;51.422;6.786;2023-07-13T02:21:30;5.70;;;2.38;;
12493;SDS011;8260;51.422;6.786;2023-07-13T02:23:58;4.13;;;2.00;;
12493;SDS011;8260;51.422;6.786;2023-07-13T02:26:27;3.67;;;2.30;;
12493;SDS011;8260;51.422;6.786;2023-07-13T02:28:55;5.00;;;2.15;;
12493;SDS011;8260;51.422;6.786;2023-07-13T02:31:25;6.10;;;2.20;;
12493;SDS011;8260;51.422;6.786;2023-07-13T02:33:54;4.30;;;2.10;;
12493;SDS011;8260;51.422;6.786;2023-07-13T02:36:22;6.90;;;2.47;;
12493;SDS011;8260;51.422;6.786;2023-07-13T02:38:51;4.63;;;2.20;;
12493;SDS011;8260;51.422;6.786;2023-07-13T02:41:20;5.35;;;2.58;;
12493;SDS011;8260;51.422;6.786;2023-07-13T02:43:49;4.88;;;2.10;;
12493;SDS011;8260;51.422;6.786;2023-07-13T02:46:18;4.40;;;2.65;;
12493;SDS011;8260;51.422;6.786;2023-07-13T02:48:48;6.60;;;2.60;;
12493;SDS011;8260;51.422;6.786;2023-07-13T02:51:17;8.65;;;2.28;;
12493;SDS011;8260;51.422;6.786;2023-07-13T02:53:45;5.65;;;2.38;;
12493;SDS011;8260;51.422;6.786;2023-07-13T02:56:14;6.90;;;2.60;;
12493;SDS011;8260;51.422;6.786;2023-07-13T02:58:43;5.07;;;2.15;;
12493;SDS011;8260;51.422;6.786;2023-07-13T03:01:12;5.60;;;2.30;;
12493;SDS011;8260;51.422;6.786;2023-07-13T03:03:45;6.85;;;2.35;;
12493;SDS011;8260;51.422;6.786;2023-07-13T03:06:16;4.63;;;2.35;;
12493;SDS011;8260;51.422;6.786;2023-07-13T03:08:44;4.90;;;2.28;;
12493;SDS011;8260;51.422;6.786;2023-07-13T03:11:14;5.47;;;2.30;;
12493;SDS011;8260;51.422;6.786;2023-07-13T03:13:43;5.07;;;2.45;;
12493;SDS011;8260;51.422;6.786;2023-07-13T03:16:11;5.35;;;2.47;;
12493;SDS011;8260;51.422;6.786;2023-07-13T03:18:45;8.10;;;2.58;;
12493;SDS011;8260;51.422;6.786;2023-07-13T03:21:16;5.47;;;2.63;;
12493;SDS011;8260;51.422;6.786;2023-07-13T03:23:44;7.88;;;2.35;;
12493;SDS011;8260;51.422;6.786;2023-07-13T03:26:14;3.10;;;2.20;;
12493;SDS011;8260;51.422;6.786;2023-07-13T03:28:43;4.90;;;2.35;;
12493;SDS011;8260;51.422;6.786;2023-07-13T03:31:13;5.38;;;2.10;;
12493;SDS011;8260;51.422;6.786;2023-07-13T03:33:42;4.30;;;2.03;;
12493;SDS011;8260;51.422;6.786;2023-07-13T03:36:12;4.88;;;2.40;;
12493;SDS011;8260;51.422;6.786;2023-07-13T03:38:42;6.82;;;2.53;;
12493;SDS011;8260;51.422;6.786;2023-07-13T03:41:10;7.18;;;2.60;;
12493;SDS011;8260;51.422;6.786;2023-07-13T03:43:39;12.50;;;2.92;;
12493;SDS011;8260;51.422;6.786;2023-07-13T03:46:07;4.22;;;2.42;;
12493;SDS011;8260;51.422;6.786;2023-07-13T03:48:36;3.67;;;2.90;;
12493;SDS011;8260;51.422;6.786;2023-07-13T03:51:06;5.35;;;2.80;;
12493;SDS011;8260;51.422;6.786;2023-07-13T03:53:37;5.93;;;2.78;;
12493;SDS011;8260;51.422;6.786;2023-07-13T03:56:07;6.70;;;2.58;;
12493;SDS011;8260;51.422;6.786;2023-07-13T03:58:37;5.05;;;2.58;;
12493;SDS011;8260;51.422;6.786;2023-07-13T04:01:06;7.18;;;2.58;;
12493;SDS011;8260;51.422;6.786;2023-07-13T04:03:36;7.20;;;2.67;;
12493;SDS011;8260;51.422;6.786;2023-07-13T04:06:05;7.65;;;2.63;;
12493;SDS011;8260;51.422;6.786;2023-07-13T04:08:35;3.97;;;2.13;;
12493;SDS011;8260;51.422;6.786;2023-07-13T04:11:04;7.07;;;2.50;;
12493;SDS011;8260;51.422;6.786;2023-07-13T04:13:34;6.68;;;2.50;;
12493;SDS011;8260;51.422;6.786;2023-07-13T04:16:02;5.25;;;2.80;;
12493;SDS011;8260;51.422;6.786;2023-07-13T04:18:31;5.78;;;2.90;;
12493;SDS011;8260;51.422;6.786;2023-07-13T04:20:59;6.38;;;2.75;;
12493;SDS011;8260;51.422;6.786;2023-07-13T04:23:28;5.05;;;2.72;;
12493;SDS011;8260;51.422;6.786;2023-07-13T04:25:57;6.00;;;2.95;;
12493;SDS011;8260;51.422;6.786;2023-07-13T04:28:25;10.82;;;2.67;;
12493;SDS011;8260;51.422;6.786;2023-07-13T04:30:55;6.32;;;3.00;;
12493;SDS011;8260;51.422;6.786;2023-07-13T04:33:24;8.25;;;3.30;;
12493;SDS011;8260;51.422;6.786;2023-07-13T04:35:53;6.18;;;2.70;;
12493;SDS011;8260;51.422;6.786;2023-07-13T04:38:24;9.65;;;2.67;;
12493;SDS011;8260;51.422;6.786;2023-07-13T04:40:54;6.65;;;3.22;;
12493;SDS011;8260;51.422;6.786;2023-07-13T04:43:23;6.13;;;3.13;;
12493;SDS011;8260;51.422;6.786;2023-07-13T04:45:52;5.03;;;2.70;;
12493;SDS011;8260;51.422;6.786;2023-07-13T04:48:22;6.40;;;2.67;;
12493;SDS011;8260;51.422;6.786;2023-07-13T04:50:54;8.27;;;3.28;;
12493;SDS011;8260;51.422;6.786;2023-07-13T04:53:23;8.32;;;3.25;;
12493;SDS011;8260;51.422;6.786;2023-07-13T04:55:51;9.43;;;3.38;;
12493;SDS011;8260;51.422;6.786;2023-07-13T04:58:20;4.05;;;3.10;;
12493;SDS011;8260;51.422;6.786;2023-07-13T05:00:49;8.18;;;3.60;;
12493;SDS011;8260;51.422;6.786;2023-07-13T05:03:17;9.05;;;3.35;;
12493;SDS011;8260;51.422;6.786;2023-07-13T05:05:55;7.85;;;3.42;;
12493;SDS011;8260;51.422;6.786;2023-07-13T05:08:24;7.22;;;3.22;;
12493;SDS011;8260;51.422;6.786;2023-07-13T05:10:52;7.90;;;3.13;;
12493;SDS011;8260;51.422;6.786;2023-07-13T05:13:21;6.18;;;3.10;;
12493;SDS011;8260;51.422;6.786;2023-07-13T05:15:57;10.60;;;3.58;;
12493;SDS011;8260;51.422;6.786;2023-07-13T05:18:27;6.47;;;3.00;;
12493;SDS011;8260;51.422;6.786;2023-07-13T05:21:01;9.98;;;3.63;;
12493;SDS011;8260;51.422;6.786;2023-07-13T05:23:30;7.85;;;3.63;;
12493;SDS011;8260;51.422;6.786;2023-07-13T05:25:59;13.05;;;4.30;;
12493;SDS011;8260;51.422;6.786;2023-07-13T05:28:27;11.07;;;4.25;;
12493;SDS011;8260;51.422;6.786;2023-07-13T05:30:56;6.35;;;3.45;;
12493;SDS011;8260;51.422;6.786;2023-07-13T05:33:25;7.50;;;3.20;;
12493;SDS011;8260;51.422;6.786;2023-07-13T05:35:53;9.15;;;3.67;;
12493;SDS011;8260;51.422;6.786;2023-07-13T05:38:23;10.48;;;4.13;;
12493;SDS011;8260;51.422;6.786;2023-07-13T05:40:53;8.32;;;3.63;;
12493;SDS011;8260;51.422;6.786;2023-07-13T05:43:22;6.15;;;3.28;;
12493;SDS011;8260;51.422;6.786;2023-07-13T05:45:52;7.93;;;3.45;;
12493;SDS011;8260;51.422;6.786;2023-07-13T05:48:21;6.20;;;3.33;;
12493;SDS011;8260;51.422;6.786;2023-07-13T05:50:50;10.05;;;3.92;;
12493;SDS011;8260;51.422;6.786;2023-07-13T05:53:19;8.77;;;3.38;;
12493;SDS011;8260;51.422;6.786;2023-07-13T05:55:49;7.85;;;3.50;;
12493;SDS011;8260;51.422;6.786;2023-07-13T05:58:19;11.35;;;3.58;;
12493;SDS011;8260;51.422;6.786;2023-07-13T06:00:48;13.45;;;3.80;;
12493;SDS011;8260;51.422;6.786;2023-07-13T06:03:17;9.70;;;4.05;;
12493;SDS011;8260;51.422;6.786;2023-07-13T06:05:46;9.25;;;4.05;;
12493;SDS011;8260;51.422;6.786;2023-07-13T06:08:14;10.50;;;3.55;;
12493;SDS011;8260;51.422;6.786;2023-07-13T06:10:43;12.10;;;3.60;;
12493;SDS011;8260;51.422;6.786;2023-07-13T06:13:13;7.47;;;3.88;;
12493;SDS011;8260;51.422;6.786;2023-07-13T06:15:41;11.45;;;4.30;;
12493;SDS011;8260;51.422;6.786;2023-07-13T06:18:10;12.25;;;4.43;;
12493;SDS011;8260;51.422;6.786;2023-07-13T06:20:38;9.93;;;4.35;;
12493;SDS011;8260;51.422;6.786;2023-07-13T06:23:07;9.77;;;4.32;;
12493;SDS011;8260;51.422;6.786;2023-07-13T06:25:35;11.82;;;4.45;;
12493;SDS011;8260;51.422;6.786;2023-07-13T06:28:04;9.35;;;4.03;;
12493;SDS011;8260;51.422;6.786;2023-07-13T06:30:33;10.07;;;4.30;;
12493;SDS011;8260;51.422;6.786;2023-07-13T06:33:02;9.95;;;4.15;;
12493;SDS011;8260;51.422;6.786;2023-07-13T06:35:31;10.80;;;4.22;;
12493;SDS011;8260;51.422;6.786;2023-07-13T06:38:00;11.15;;;4.90;;
12493;SDS011;8260;51.422;6.786;2023-07-13T06:40:28;9.48;;;4.05;;
12493;SDS011;8260;51.422;6.786;2023-07-13T06:42:57;13.75;;;4.45;;
12493;SDS011;8260;51.422;6.786;2023-07-13T06:45:26;6.70;;;4.05;;
12493;SDS011;8260;51.422;6.786;2023-07-13T06:47:55;8.77;;;4.40;;
12493;SDS011;8260;51.422;6.786;2023-07-13T06:50:24;12.93;;;3.92;;
12493;SDS011;8260;51.422;6.786;2023-07-13T06:52:52;11.50;;;4.45;;
12493;SDS011;8260;51.422;6.786;2023-07-13T06:55:21;8.15;;;4.07;;
12493;SDS011;8260;51.422;6.786;2023-07-13T06:57:50;12.15;;;4.47;;
12493;SDS011;8260;51.422;6.786;2023-07-13T07:00:18;10.10;;;4.47;;
12493;SDS011;8260;51.422;6.786;2023-07-13T07:02:47;10.27;;;4.18;;
12493;SDS011;8260;51.422;6.786;2023-07-13T07:05:17;9.98;;;3.97;;
12493;SDS011;8260;51.422;6.786;2023-07-13T07:07:49;8.93;;;3.75;;
12493;SDS011;8260;51.422;6.786;2023-07-13T07:10:17;8.38;;;4.10;;
12493;SDS011;8260;51.422;6.786;2023-07-13T07:12:46;7.13;;;3.90;;
12493;SDS011;8260;51.422;6.786;2023-07-13T07:15:15;6.47;;;4.22;;
12493;SDS011;8260;51.422;6.786;2023-07-13T07:17:43;7.28;;;3.72;;
12493;SDS011;8260;51.422;6.786;2023-07-13T07:20:13;12.57;;;4.10;;
12493;SDS011;8260;51.422;6.786;2023-07-13T07:22:42;9.57;;;4.18;;
12493;SDS011;8260;51.422;6.786;2023-07-13T07:25:11;9.00;;;4.30;;
12493;SDS011;8260;51.422;6.786;2023-07-13T07:27:40;9.15;;;4.00;;
12493;SDS011;8260;51.422;6.786;2023-07-13T07:30:11;8.73;;;4.38;;
12493;SDS011;8260;51.422;6.786;2023-07-13T07:32:44;8.82;;;4.88;;
12493;SDS011;8260;51.422;6.786;2023-07-13T07:35:16;12.32;;;4.50;;
12493;SDS011;8260;51.422;6.786;2023-07-13T07:37:46;9.32;;;4.55;;
12493;SDS011;8260;51.422;6.786;2023-07-13T07:40:16;9.60;;;4.25;;
12493;SDS011;8260;51.422;6.786;2023-07-13T07:42:48;9.95;;;4.88;;
12493;SDS011;8260;51.422;6.786;2023-07-13T07:45:17;12.73;;;4.70;;
12493;SDS011;8260;51.422;6.786;2023-07-13T07:47:46;11.52;;;4.75;;
12493;SDS011;8260;51.422;6.786;2023-07-13T07:50:14;10.95;;;4.70;;
12493;SDS011;8260;51.422;6.786;2023-07-13T07:52:43;13.90;;;4.57;;
12493;SDS011;8260;51.422;6.786;2023-07-13T07:55:13;9.52;;;4.63;;
12493;SDS011;8260;51.422;6.786;2023-07-13T07:57:44;6.43;;;4.25;;
12493;SDS011;8260;51.422;6.786;2023-07-13T08:00:16;6.53;;;4.22;;
12493;SDS011;8260;51.422;6.786;2023-07-13T08:02:47;9.13;;;4.38;;
12493;SDS011;8260;51.422;6.786;2023-07-13T08:05:19;9.90;;;4.55;;
12493;SDS011;8260;51.422;6.786;2023-07-13T08:08:04;11.30;;;4.40;;
12493;SDS011;8260;51.422;6.786;2023-07-13T08:10:36;9.18;;;4.68;;
12493;SDS011;8260;51.422;6.786;2023-07-13T08:13:04;11.35;;;5.03;;
12493;SDS011;8260;51.422;6.786;2023-07-13T08:15:36;11.95;;;5.00;;
12493;SDS011;8260;51.422;6.786;2023-07-13T08:18:04;8.95;;;4.47;;
12493;SDS011;8260;51.422;6.786;2023-07-13T08:20:36;9.75;;;4.85;;
12493;SDS011;8260;51.422;6.786;2023-07-13T08:23:05;7.88;;;5.30;;
12493;SDS011;8260;51.422;6.786;2023-07-13T08:25:35;7.38;;;4.57;;
12493;SDS011;8260;51.422;6.786;2023-07-13T08:28:04;11.52;;;4.85;;
12493;SDS011;8260;51.422;6.786;2023-07-13T08:30:33;10.60;;;4.05;;
12493;SDS011;8260;51.422;6.786;2023-07-13T08:33:02;8.73;;;4.07;;
12493;SDS011;8260;51.422;6.786;2023-07-13T08:35:32;8.95;;;5.00;;
12493;SDS011;8260;51.422;6.786;2023-07-13T08:38:00;9.90;;;5.40;;
12493;SDS011;8260;51.422;6.786;2023-07-13T08:40:29;7.10;;;4.10;;
12493;SDS011;8260;51.422;6.786;2023-07-13T08:42:59;8.23;;;3.97;;
12493;SDS011;8260;51.422;6.786;2023-07-13T08:45:29;6.10;;;3.58;;
12493;SDS011;8260;51.422;6.786;2023-07-13T08:48:09;8.25;;;3.50;;
12493;SDS011;8260;51.422;6.786;2023-07-13T08:50:42;6.95;;;3.55;;
12493;SDS011;8260;51.422;6.786;2023-07-13T08:53:31;8.55;;;3.80;;
12493;SDS011;8260;51.422;6.786;2023-07-13T08:56:01;13.43;;;3.92;;
12493;SDS011;8260;51.422;6.786;2023-07-13T08:58:32;6.53;;;3.30;;
12493;SDS011;8260;51.422;6.786;2023-07-13T09:01:02;9.25;;;3.63;;
12493;SDS011;8260;51.422;6.786;2023-07-13T09:03:38;8.20;;;3.17;;
12493;SDS011;8260;51.422;6.786;2023-07-13T09:06:09;5.47;;;3.28;;
12493;SDS011;8260;51.422;6.786;2023-07-13T09:08:46;8.82;;;3.83;;
12493;SDS011;8260;51.422;6.786;2023-07-13T09:11:23;11.55;;;3.97;;
12493;SDS011;8260;51.422;6.786;2023-07-13T09:14:00;6.72;;;3.75;;
12493;SDS011;8260;51.422;6.786;2023-07-13T09:16:31;6.88;;;3.47;;
12493;SDS011;8260;51.422;6.786;2023-07-13T09:19:02;7.63;;;3.72;;
12493;SDS011;8260;51.422;6.786;2023-07-13T09:21:33;8.18;;;3.70;;
12493;SDS011;8260;51.422;6.786;2023-07-13T09:24:15;10.40;;;3.80;;
12493;SDS011;8260;51.422;6.786;2023-07-13T09:26:49;8.45;;;3.70;;
12493;SDS011;8260;51.422;6.786;2023-07-13T09:29:22;9.60;;;3.58;;
12493;SDS011;8260;51.422;6.786;2023-07-13T09:31:54;10.85;;;3.67;;
12493;SDS011;8260;51.422;6.786;2023-07-13T09:34:27;5.95;;;3.78;;
12493;SDS011;8260;51.422;6.786;2023-07-13T09:36:57;9.43;;;3.85;;
12493;SDS011;8260;51.422;6.786;2023-07-13T09:39:26;8.40;;;4.25;;
12493;SDS011;8260;51.422;6.786;2023-07-13T09:41:57;9.40;;;3.78;;
12493;SDS011;8260;51.422;6.786;2023-07-13T09:44:30;8.32;;;3.42;;
12493;SDS011;8260;51.422;6.786;2023-07-13T09:46:59;9.23;;;3.83;;
12493;SDS011;8260;51.422;6.786;2023-07-13T09:49:29;10.20;;;3.97;;
12493;SDS011;8260;51.422;6.786;2023-07-13T09:51:58;11.45;;;3.80;;
12493;SDS011;8260;51.422;6.786;2023-07-13T09:54:28;8.68;;;3.42;;
12493;SDS011;8260;51.422;6.786;2023-07-13T09:56:58;6.95;;;3.15;;
12493;SDS011;8260;51.422;6.786;2023-07-13T09:59:28;7.22;;;3.42;;
12493;SDS011;8260;51.422;6.786;2023-07-13T10:01:58;8.48;;;3.40;;
12493;SDS011;8260;51.422;6.786;2023-07-13T10:04:30;5.85;;;2.97;;
12493;SDS011;8260;51.422;6.786;2023-07-13T10:07:05;7.30;;;3.22;;
12493;SDS011;8260;51.422;6.786;2023-07-13T10:09:54;9.90;;;3.67;;
12493;SDS011;8260;51.422;6.786;2023-07-13T10:12:23;8.13;;;3.20;;
12493;SDS011;8260;51.422;6.786;2023-07-13T10:14:52;7.35;;;3.20;;
12493;SDS011;8260;51.422;6.786;2023-07-13T10:17:44;9.35;;;3.72;;
12493;SDS011;8260;51.422;6.786;2023-07-13T10:20:13;5.80;;;3.42;;
12493;SDS011;8260;51.422;6.786;2023-07-13T10:22:44;9.75;;;3.50;;
12493;SDS011;8260;51.422;6.786;2023-07-13T10:25:14;7.25;;;3.38;;
12493;SDS011;8260;51.422;6.786;2023-07-13T10:27:43;4.13;;;2.90;;
12493;SDS011;8260;51.422;6.786;2023-07-13T10:30:13;7.18;;;3.90;;
12493;SDS011;8260;51.422;6.786;2023-07-13T10:32:45;9.30;;;3.22;;
12493;SDS011;8260;51.422;6.786;2023-07-13T10:35:14;6.10;;;3.65;;
12493;SDS011;8260;51.422;6.786;2023-07-13T10:37:45;5.90;;;3.45;;
12493;SDS011;8260;51.422;6.786;2023-07-13T10:40:18;8.35;;;3.72;;
12493;SDS011;8260;51.422;6.786;2023-07-13T10:42:49;5.85;;;3.55;;
12493;SDS011;8260;51.422;6.786;2023-07-13T10:45:21;6.00;;;2.85;;
12493;SDS011;8260;51.422;6.786;2023-07-13T10:47:52;8.57;;;3.10;;
12493;SDS011;8260;51.422;6.786;2023-07-13T10:50:24;4.80;;;3.10;;
12493;SDS011;8260;51.422;6.786;2023-07-13T10:52:53;9.00;;;3.60;;
12493;SDS011;8260;51.422;6.786;2023-07-13T10:58:13;6.80;;;3.53;;
12493;SDS011;8260;51.422;6.786;2023-07-13T11:01:03;8.25;;;3.05;;
12493;SDS011;8260;51.422;6.786;2023-07-13T11:03:33;7.45;;;2.80;;
12493;SDS011;8260;51.422;6.786;2023-07-13T11:06:04;6.68;;;3.40;;
12493;SDS011;8260;51.422;6.786;2023-07-13T11:08:36;4.68;;;2.85;;
12493;SDS011;8260;51.422;6.786;2023-07-13T11:13:56;5.95;;;2.92;;
12493;SDS011;8260;51.422;6.786;2023-07-13T11:16:33;6.65;;;2.83;;
12493;SDS011;8260;51.422;6.786;2023-07-13T11:22:03;5.55;;;2.83;;
12493;SDS011;8260;51.422;6.786;2023-07-13T11:24:47;4.88;;;2.72;;
12493;SDS011;8260;51.422;6.786;2023-07-13T11:27:21;5.18;;;2.83;;
12493;SDS011;8260;51.422;6.786;2023-07-13T11:29:50;6.43;;;2.20;;
12493;SDS011;8260;51.422;6.786;2023-07-13T11:32:23;7.90;;;3.08;;
12493;SDS011;8260;51.422;6.786;2023-07-13T11:34:53;5.20;;;2.30;;
12493;SDS011;8260;51.422;6.786;2023-07-13T11:37:23;5.55;;;2.60;;
12493;SDS011;8260;51.422;6.786;2023-07-13T11:39:52;4.10;;;2.28;;
12493;SDS011;8260;51.422;6.786;2023-07-13T11:42:21;3.80;;;2.40;;
12493;SDS011;8260;51.422;6.786;2023-07-13T11:44:50;5.22;;;2.70;;
12493;SDS011;8260;51.422;6.786;2023-07-13T11:47:39;8.35;;;2.97;;
12493;SDS011;8260;51.422;6.786;2023-07-13T11:50:16;4.97;;;2.40;;
12493;SDS011;8260;51.422;6.786;2023-07-13T11:52:47;7.55;;;2.78;;
12493;SDS011;8260;51.422;6.786;2023-07-13T11:55:17;5.70;;;2.40;;
12493;SDS011;8260;51.422;6.786;2023-07-13T11:57:48;4.43;;;2.92;;
12493;SDS011;8260;51.422;6.786;2023-07-13T12:00:18;5.25;;;2.38;;
12493;SDS011;8260;51.422;6.786;2023-07-13T12:02:49;4.05;;;2.15;;
12493;SDS011;8260;51.422;6.786;2023-07-13T12:05:19;3.22;;;2.25;;
12493;SDS011;8260;51.422;6.786;2023-07-13T12:07:49;4.50;;;2.50;;
12493;SDS011;8260;51.422;6.786;2023-07-13T12:10:19;4.03;;;2.35;;
12493;SDS011;8260;51.422;6.786;2023-07-13T12:12:54;3.65;;;2.53;;
12493;SDS011;8260;51.422;6.786;2023-07-13T12:15:26;6.18;;;2.72;;
12493;SDS011;8260;51.422;6.786;2023-07-13T12:17:56;5.63;;;2.70;;
12493;SDS011;8260;51.422;6.786;2023-07-13T12:20:26;5.28;;;2.47;;
12493;SDS011;8260;51.422;6.786;2023-07-13T12:22:56;5.85;;;2.28;;
12493;SDS011;8260;51.422;6.786;2023-07-13T12:25:27;4.68;;;2.10;;
12493;SDS011;8260;51.422;6.786;2023-07-13T12:27:56;4.85;;;2.28;;
12493;SDS011;8260;51.422;6.786;2023-07-13T12:30:26;4.20;;;2.22;;
12493;SDS011;8260;51.422;6.786;2023-07-13T12:32:56;5.60;;;2.22;;
12493;SDS011;8260;51.422;6.786;2023-07-13T12:35:29;6.03;;;2.28;;
12493;SDS011;8260;51.422;6.786;2023-07-13T12:38:04;3.65;;;2.05;;
12493;SDS011;8260;51.422;6.786;2023-07-13T12:40:37;3.95;;;2.10;;
12493;SDS011;8260;51.422;6.786;2023-07-13T12:43:10;6.38;;;2.72;;
12493;SDS011;8260;51.422;6.786;2023-07-13T12:45:44;3.20;;;2.22;;
12493;SDS011;8260;51.422;6.786;2023-07-13T12:48:22;4.70;;;2.35;;
12493;SDS011;8260;51.422;6.786;2023-07-13T12:51:11;4.05;;;2.30;;
12493;SDS011;8260;51.422;6.786;2023-07-13T12:53:42;5.78;;;2.58;;
12493;SDS011;8260;51.422;6.786;2023-07-13T12:56:15;3.15;;;1.80;;
12493;SDS011;8260;51.422;6.786;2023-07-13T12:58:46;8.73;;;2.60;;
12493;SDS011;8260;51.422;6.786;2023-07-13T13:01:21;5.15;;;2.25;;
12493;SDS011;8260;51.422;6.786;2023-07-13T13:03:52;6.35;;;3.15;;
12493;SDS011;8260;51.422;6.786;2023-07-13T13:06:22;8.90;;;3.55;;
12493;SDS011;8260;51.422;6.786;2023-07-13T13:08:53;6.65;;;2.60;;
12493;SDS011;8260;51.422;6.786;2023-07-13T13:11:22;7.75;;;3.10;;
12493;SDS011;8260;51.422;6.786;2023-07-13T13:13:52;6.70;;;2.67;;
12493;SDS011;8260;51.422;6.786;2023-07-13T13:16:21;6.03;;;2.65;;
12493;SDS011;8260;51.422;6.786;2023-07-13T13:18:51;3.92;;;2.30;;
12493;SDS011;8260;51.422;6.786;2023-07-13T13:21:23;5.28;;;2.20;;
12493;SDS011;8260;51.422;6.786;2023-07-13T13:23:54;5.40;;;2.90;;
12493;SDS011;8260;51.422;6.786;2023-07-13T13:26:22;4.00;;;2.20;;
12493;SDS011;8260;51.422;6.786;2023-07-13T13:28:52;2.97;;;1.83;;
12493;SDS011;8260;51.422;6.786;2023-07-13T13:31:21;3.05;;;1.98;;
12493;SDS011;8260;51.422;6.786;2023-07-13T13:33:49;3.35;;;1.92;;
12493;SDS011;8260;51.422;6.786;2023-07-13T13:36:19;3.42;;;2.50;;
12493;SDS011;8260;51.422;6.786;2023-07-13T13:38:48;6.55;;;2.90;;
12493;SDS011;8260;51.422;6.786;2023-07-13T13:41:18;4.07;;;2.42;;
12493;SDS011;8260;51.422;6.786;2023-07-13T13:43:47;3.63;;;2.08;;
12493;SDS011;8260;51.422;6.786;2023-07-13T13:46:16;5.72;;;2.35;;
12493;SDS011;8260;51.422;6.786;2023-07-13T13:48:45;4.40;;;2.38;;
12493;SDS011;8260;51.422;6.786;2023-07-13T13:51:15;5.68;;;3.08;;
12493;SDS011;8260;51.422;6.786;2023-07-13T13:53:44;5.60;;;2.90;;
12493;SDS011;8260;51.422;6.786;2023-07-13T13:56:13;2.85;;;2.20;;
12493;SDS011;8260;51.422;6.786;2023-07-13T13:58:43;6.30;;;2.05;;
12493;SDS011;8260;51.422;6.786;2023-07-13T14:01:12;3.97;;;2.10;;
12493;SDS011;8260;51.422;6.786;2023-07-13T14:03:43;3.85;;;1.80;;
12493;SDS011;8260;51.422;6.786;2023-07-13T14:06:12;5.15;;;2.30;;
12493;SDS011;8260;51.422;6.786;2023-07-13T14:08:41;3.90;;;2.35;;
12493;SDS011;8260;51.422;6.786;2023-07-13T14:11:10;6.65;;;3.10;;
12493;SDS011;8260;51.422;6.786;2023-07-13T14:13:41;7.57;;;3.42;;
12493;SDS011;8260;51.422;6.786;2023-07-13T14:16:12;5.68;;;3.50;;
12493;SDS011;8260;51.422;6.786;2023-07-13T14:18:44;8.15;;;3.50;;
12493;SDS011;8260;51.422;6.786;2023-07-13T14:21:13;10.02;;;3.97;;
12493;SDS011;8260;51.422;6.786;2023-07-13T14:23:42;9.23;;;4.10;;
12493;SDS011;8260;51.422;6.786;2023-07-13T14:26:12;8.52;;;4.35;;
12493;SDS011;8260;51.422;6.786;2023-07-13T14:28:42;9.48;;;4.32;;
12493;SDS011;8260;51.422;6.786;2023-07-13T14:31:13;6.20;;;4.03;;
12493;SDS011;8260;51.422;6.786;2023-07-13T14:33:41;8.13;;;3.70;;
12493;SDS011;8260;51.422;6.786;2023-07-13T14:36:15;7.95;;;3.42;;
12493;SDS011;8260;51.422;6.786;2023-07-13T14:38:46;8.70;;;3.40;;
12493;SDS011;8260;51.422;6.786;2023-07-13T14:41:15;4.45;;;3.10;;
12493;SDS011;8260;51.422;6.786;2023-07-13T14:43:43;7.00;;;3.08;;
12493;SDS011;8260;51.422;6.786;2023-07-13T14:46:16;5.20;;;3.17;;
12493;SDS011;8260;51.422;6.786;2023-07-13T14:48:46;5.00;;;2.97;;
12493;SDS011;8260;51.422;6.786;2023-07-13T14:51:15;5.88;;;2.88;;
12493;SDS011;8260;51.422;6.786;2023-07-13T14:53:44;5.75;;;2.75;;
12493;SDS011;8260;51.422;6.786;2023-07-13T14:56:12;5.45;;;2.75;;
12493;SDS011;8260;51.422;6.786;2023-07-13T14:58:43;4.68;;;2.75;;
12493;SDS011;8260;51.422;6.786;2023-07-13T15:01:13;6.05;;;2.95;;
12493;SDS011;8260;51.422;6.786;2023-07-13T15:03:43;3.72;;;2.78;;
12493;SDS011;8260;51.422;6.786;2023-07-13T15:06:13;5.30;;;3.08;;
12493;SDS011;8260;51.422;6.786;2023-07-13T15:08:42;6.15;;;2.78;;
12493;SDS011;8260;51.422;6.786;2023-07-13T15:11:10;6.68;;;3.28;;
12493;SDS011;8260;51.422;6.786;2023-07-13T15:13:39;5.53;;;3.08;;
12493;SDS011;8260;51.422;6.786;2023-07-13T15:16:15;7.40;;;3.47;;
12493;SDS011;8260;51.422;6.786;2023-07-13T15:18:47;7.00;;;2.58;;
12493;SDS011;8260;51.422;6.786;2023-07-13T15:21:17;3.17;;;1.95;;
12493;SDS011;8260;51.422;6.786;2023-07-13T15:23:46;4.88;;;2.47;;
12493;SDS011;8260;51.422;6.786;2023-07-13T15:26:16;3.35;;;2.30;;
12493;SDS011;8260;51.422;6.786;2023-07-13T15:28:44;6.75;;;2.50;;